Time;durP1;ratioP1;P1;durP2;ratioP2;P2;SDS_P1;SDS_P2;PMS_P1;PMS_P2;Temp;Humidity;BMP_temperature;BMP_pressure;BME280_temperature;BME280_humidity;BME280_pressure;Samples;Min_cycle;Max_cycle;Signal;HPM_P1;HPM_P2
2022/06/03 00:00:37;;;;;;;10.10;4.00;;;;;;;9.41;99.85;100432.99;105192;1268;60350;-63
2022/06/03 00:03:39;;;;;;;9.80;3.70;;;;;;;9.46;99.72;100427.82;105254;1265;74001;-63
2022/06/03 00:06:59;;;;;;;10.10;3.80;;;;;;;9.49;99.81;100422.13;105291;1265;68560;-64
2022/06/03 00:10:23;;;;;;;12.30;4.50;;;;;;;9.49;100.00;100426.02;105374;1265;72220;-65
2022/06/03 00:13:44;;;;;;;11.10;4.30;;;;;;;9.47;99.44;100425.27;105126;1268;60107;-67
2022/06/03 00:17:12;;;;;;;12.10;4.80;;;;;;;9.45;99.70;100424.73;105168;1265;59702;-68
2022/06/03 00:20:39;;;;;;;11.40;4.70;;;;;;;9.43;99.75;100437.23;105389;1265;74948;-64
2022/06/03 00:23:47;;;;;;;11.50;4.40;;;;;;;9.41;99.53;100438.43;105471;1265;69612;-63
2022/06/03 00:26:58;;;;;;;12.10;4.10;;;;;;;9.39;99.77;100438.00;105279;1265;74491;-66
2022/06/03 00:30:21;;;;;;;10.40;4.40;;;;;;;9.38;99.45;100437.19;105396;1265;60221;-62
2022/06/03 00:33:43;;;;;;;10.00;4.70;;;;;;;9.38;99.35;100437.40;105601;1265;62137;-65
2022/06/03 00:37:07;;;;;;;10.90;4.40;;;;;;;9.38;99.49;100436.88;105076;1267;74757;-63
2022/06/03 00:40:38;;;;;;;10.60;4.10;;;;;;;9.36;99.39;100440.69;105356;1265;69975;-62
2022/06/03 00:43:43;;;;;;;11.50;4.80;;;;;;;9.34;99.44;100445.09;105184;1265;74513;-63
2022/06/03 00:46:43;;;;;;;12.60;4.50;;;;;;;9.33;99.35;100442.34;105507;1265;59768;-63
2022/06/03 00:49:39;;;;;;;9.10;4.20;;;;;;;9.31;99.24;100447.40;105403;1265;60351;-63
2022/06/03 00:52:58;;;;;;;10.10;4.20;;;;;;;9.30;99.62;100449.40;105107;1267;75354;-64
2022/06/03 00:56:31;;;;;;;12.10;4.80;;;;;;;9.30;99.37;100447.84;105292;1265;68556;-63
2022/06/03 00:59:38;;;;;;;12.90;4.60;;;;;;;9.28;99.95;100447.23;104768;1265;1003138;-65
2022/06/03 01:02:50;;;;;;;12.60;4.60;;;;;;;9.27;99.97;100445.56;105310;1265;59669;-63
2022/06/03 01:06:28;;;;;;;13.20;3.90;;;;;;;9.25;100.00;100446.01;105149;1265;62427;-63
2022/06/03 01:10:01;;;;;;;12.80;4.50;;;;;;;9.23;100.00;100443.86;105245;1267;75173;-56
2022/06/03 01:13:23;;;;;;;11.30;4.50;;;;;;;9.22;100.00;100443.80;105383;1265;69544;-59
2022/06/03 01:17:13;;;;;;;12.80;4.60;;;;;;;9.20;100.00;100446.36;105086;1267;74483;-63
2022/06/03 01:21:00;;;;;;;11.70;3.80;;;;;;;9.22;100.00;100452.98;105031;1274;59686;-62
2022/06/03 01:24:24;;;;;;;10.60;4.80;;;;;;;9.26;100.00;100454.84;104222;1281;60944;-62
2022/06/03 01:27:17;;;;;;;10.40;4.40;;;;;;;9.30;100.00;100453.98;104398;1281;70780;-63
2022/06/03 01:31:00;;;;;;;12.20;4.40;;;;;;;9.35;100.00;100460.43;104157;1281;68499;-62
2022/06/03 01:34:35;;;;;;;12.70;4.90;;;;;;;9.37;100.00;100458.34;104100;1281;74216;-63
2022/06/03 01:37:34;;;;;;;13.00;4.70;;;;;;;9.39;100.00;100460.70;103958;1282;59798;-61
2022/06/03 01:40:40;;;;;;;12.30;4.20;;;;;;;9.39;100.00;100460.34;103953;1282;61192;-62
2022/06/03 01:43:51;;;;;;;12.30;4.50;;;;;;;9.37;100.00;100461.15;103865;1282;72938;-62
2022/06/03 01:47:17;;;;;;;11.40;5.20;;;;;;;9.38;100.00;100449.60;104169;1281;69674;-65
2022/06/03 01:50:27;;;;;;;11.80;4.30;;;;;;;9.41;100.00;100446.95;104028;1281;73532;-63
2022/06/03 01:53:59;;;;;;;11.40;4.60;;;;;;;9.44;100.00;100445.00;104170;1280;61333;-65
2022/06/03 01:57:14;;;;;;;12.60;4.20;;;;;;;9.46;100.00;100445.52;104722;1273;59717;-62
2022/06/03 02:00:39;;;;;;;9.70;3.90;;;;;;;9.48;100.00;100445.20;105545;1266;73687;-61
2022/06/03 02:03:46;;;;;;;11.40;4.40;;;;;;;9.49;100.00;100447.46;105215;1268;68521;-67
2022/06/03 02:07:19;;;;;;;10.70;3.70;;;;;;;9.51;100.00;100448.04;105345;1265;73172;-63
2022/06/03 02:10:31;;;;;;;12.30;4.70;;;;;;;9.51;100.00;100451.18;105311;1265;59676;-60
2022/06/03 02:13:45;;;;;;;11.10;4.60;;;;;;;9.51;100.00;100449.29;105290;1265;60622;-60
2022/06/03 02:17:20;;;;;;;12.80;4.70;;;;;;;9.51;100.00;100452.24;105403;1265;74033;-63
2022/06/03 02:20:22;;;;;;;10.00;4.70;;;;;;;9.52;100.00;100459.26;105310;1268;68967;-62
2022/06/03 02:23:39;;;;;;;9.50;4.20;;;;;;;9.55;100.00;100452.02;105526;1265;73454;-61
2022/06/03 02:27:13;;;;;;;10.60;4.30;;;;;;;9.57;100.00;100460.08;105186;1265;59821;-63
2022/06/03 02:30:34;;;;;;;8.60;4.40;;;;;;;9.59;100.00;100453.90;104858;1273;61099;-60
2022/06/03 02:34:13;;;;;;;12.30;4.40;;;;;;;9.61;100.00;100458.36;104709;1273;72344;-60
2022/06/03 02:37:46;;;;;;;10.40;4.10;;;;;;;9.64;100.00;100458.67;104876;1273;68605;-61
2022/06/03 02:41:29;;;;;;;9.30;4.10;;;;;;;9.69;100.00;100459.73;104715;1273;73423;-60
2022/06/03 02:44:50;;;;;;;10.70;4.10;;;;;;;9.73;100.00;100459.15;104687;1273;59998;-61
2022/06/03 02:48:34;;;;;;;12.00;4.20;;;;;;;9.76;100.00;100457.17;104704;1273;60447;-61
2022/06/03 02:51:48;;;;;;;9.00;4.00;;;;;;;9.78;100.00;100460.54;104043;1273;1003812;-61
2022/06/03 02:55:38;;;;;;;10.40;3.80;;;;;;;9.79;100.00;100463.01;104802;1273;69705;-61
2022/06/03 02:58:43;;;;;;;15.00;4.20;;;;;;;9.78;100.00;100465.88;104805;1273;73611;-63
2022/06/03 03:02:14;;;;;;;9.40;3.90;;;;;;;9.80;100.00;100463.60;104863;1273;60373;-62
2022/06/03 03:05:38;;;;;;;12.10;4.30;;;;;;;9.83;100.00;100467.52;104595;1273;61454;-61
2022/06/03 03:09:01;;;;;;;12.40;4.10;;;;;;;9.86;100.00;100468.02;104980;1266;73784;-62
2022/06/03 03:12:25;;;;;;;10.10;4.40;;;;;;;9.89;100.00;100470.63;105222;1265;68635;-62
2022/06/03 03:15:46;;;;;;;9.70;3.60;;;;;;;9.91;100.00;100470.86;105376;1264;74120;-62
2022/06/03 03:19:14;;;;;;;12.00;4.40;;;;;;;9.93;100.00;100471.95;105136;1267;59802;-62
2022/06/03 03:22:47;;;;;;;12.60;4.30;;;;;;;9.95;99.98;100469.85;105203;1267;59644;-62
2022/06/03 03:26:06;;;;;;;10.40;4.30;;;;;;;9.99;99.99;100470.10;105189;1265;75129;-61
2022/06/03 03:29:07;;;;;;;11.50;4.60;;;;;;;10.06;99.81;100474.29;105348;1265;69834;-62
2022/06/03 03:32:12;;;;;;;10.30;4.30;;;;;;;10.09;99.96;100473.14;105169;1265;74299;-63
2022/06/03 03:35:20;;;;;;;11.70;4.70;;;;;;;10.15;99.86;100478.05;105365;1265;59672;-61
2022/06/03 03:39:03;;;;;;;11.40;3.90;;;;;;;10.23;99.32;100479.11;105227;1264;61253;-67
2022/06/03 03:42:07;;;;;;;10.60;4.40;;;;;;;10.30;99.24;100475.08;105531;1265;73671;-60
2022/06/03 03:45:50;;;;;;;10.00;4.30;;;;;;;10.37;98.86;100477.13;105452;1265;67493;-60
2022/06/03 03:49:12;;;;;;;11.00;3.60;;;;;;;10.45;98.69;100477.26;105242;1265;74351;-61
2022/06/03 03:52:41;;;;;;;12.50;4.40;;;;;;;10.57;98.29;100481.75;105390;1265;59735;-66
2022/06/03 03:56:22;;;;;;;8.30;3.60;;;;;;;10.70;97.60;100480.95;106147;1265;61416;-65
2022/06/03 03:59:23;;;;;;;13.50;4.20;;;;;;;10.85;97.00;100481.34;105447;1265;73581;-62
2022/06/03 04:03:00;;;;;;;10.10;4.00;;;;;;;10.99;96.64;100486.59;105476;1265;69403;-62
2022/06/03 04:06:25;;;;;;;11.00;4.70;;;;;;;11.14;95.37;100484.92;105456;1264;74358;-62
2022/06/03 04:10:04;;;;;;;13.10;4.30;;;;;;;11.26;95.37;100485.25;105368;1265;59691;-63
2022/06/03 04:13:06;;;;;;;12.10;4.20;;;;;;;11.49;94.62;100490.86;104853;1274;62182;-65
2022/06/03 04:16:18;;;;;;;13.30;4.40;;;;;;;11.67;93.40;100495.08;104562;1276;74138;-62
2022/06/03 04:19:34;;;;;;;11.50;3.90;;;;;;;11.80;92.47;100493.37;104499;1276;69850;-61
2022/06/03 04:22:40;;;;;;;11.50;3.80;;;;;;;11.89;91.00;100494.81;104567;1276;74423;-61
2022/06/03 04:25:40;;;;;;;10.40;3.60;;;;;;;11.95;90.51;100494.36;104811;1276;59752;-64
2022/06/03 04:28:52;;;;;;;9.80;3.80;;;;;;;12.06;90.41;100493.71;104520;1276;61949;-62
2022/06/03 04:32:03;;;;;;;11.70;4.10;;;;;;;12.17;89.30;100495.54;104691;1276;74856;-64
2022/06/03 04:35:30;;;;;;;10.40;3.80;;;;;;;12.36;88.77;100490.14;104749;1276;69656;-60
2022/06/03 04:39:07;;;;;;;10.40;4.00;;;;;;;12.56;87.33;100487.92;104640;1276;74653;-62
2022/06/03 04:42:50;;;;;;;9.80;3.70;;;;;;;12.80;86.66;100495.74;104586;1274;59555;-61
2022/06/03 04:46:29;;;;;;;10.60;3.80;;;;;;;13.33;84.12;100496.46;104660;1276;61422;-62
2022/06/03 04:49:23;;;;;;;9.10;3.70;;;;;;;14.04;81.70;100496.25;105246;1268;72614;-63
2022/06/03 04:52:18;;;;;;;13.30;3.90;;;;;;;14.51;78.91;100495.80;105238;1265;66787;-65
2022/06/03 04:55:29;;;;;;;11.10;3.50;;;;;;;15.18;77.06;100492.63;105255;1265;74407;-60
2022/06/03 04:59:14;;;;;;;10.30;3.70;;;;;;;15.85;73.24;100489.56;105262;1265;59534;-65
2022/06/03 05:02:50;;;;;;;12.50;3.30;;;;;;;16.31;69.91;100494.93;105394;1265;61262;-64
2022/06/03 05:06:10;;;;;;;10.20;3.70;;;;;;;16.67;67.37;100496.45;105115;1265;72667;-69
2022/06/03 05:09:34;;;;;;;7.90;3.10;;;;;;;16.94;64.73;100496.77;105171;1265;68516;-64
2022/06/03 05:13:02;;;;;;;8.70;2.90;;;;;;;16.87;63.52;100497.81;105182;1265;72660;-63
2022/06/03 05:16:21;;;;;;;9.60;2.90;;;;;;;17.40;63.20;100499.95;105703;1265;59673;-65
2022/06/03 05:19:30;;;;;;;9.40;3.10;;;;;;;18.36;60.90;100501.39;105271;1265;267711;-62
2022/06/03 05:22:43;;;;;;;8.60;3.30;;;;;;;19.10;55.83;100499.79;105227;1265;73627;-65
2022/06/03 05:26:23;;;;;;;10.10;3.50;;;;;;;19.16;54.20;100499.73;105195;1265;68746;-64
2022/06/03 05:29:54;;;;;;;9.70;2.90;;;;;;;19.25;52.87;100499.85;105208;1265;74309;-64
2022/06/03 05:33:16;;;;;;;8.10;2.90;;;;;;;18.77;52.16;100506.18;104875;1273;60059;-63
2022/06/03 05:36:24;;;;;;;9.20;3.20;;;;;;;18.21;53.63;100502.10;104648;1273;59599;-65
2022/06/03 05:39:34;;;;;;;9.40;2.90;;;;;;;17.92;54.81;100505.05;104893;1273;73829;-64
2022/06/03 05:42:48;;;;;;;9.50;2.60;;;;;;;18.06;55.20;100507.95;105052;1273;67895;-67
2022/06/03 05:45:46;;;;;;;9.10;3.10;;;;;;;18.10;54.64;100507.86;104831;1273;74287;-64
2022/06/03 05:48:52;;;;;;;10.50;3.10;;;;;;;17.79;56.06;100513.35;104871;1273;59656;-64
2022/06/03 05:51:58;;;;;;;11.10;4.10;;;;;;;17.65;55.80;100518.48;104628;1273;59570;-63
2022/06/03 05:55:04;;;;;;;8.00;2.50;;;;;;;17.31;55.89;100522.41;104816;1273;73564;-64
2022/06/03 05:58:19;;;;;;;9.40;2.50;;;;;;;16.99;56.73;100522.86;104595;1273;66783;-63
2022/06/03 06:01:41;;;;;;;9.50;2.90;;;;;;;16.47;57.75;100527.59;104607;1274;74233;-62
2022/06/03 06:04:59;;;;;;;8.60;2.70;;;;;;;15.94;59.46;100527.90;104666;1273;59830;-63
2022/06/03 06:08:40;;;;;;;9.50;3.00;;;;;;;15.54;61.16;100539.23;104919;1273;60420;-62
2022/06/03 06:11:46;;;;;;;9.90;3.00;;;;;;;15.20;62.95;100538.87;105390;1265;73756;-68
2022/06/03 06:15:07;;;;;;;12.00;3.30;;;;;;;15.07;63.52;100539.36;105676;1265;68091;-63
2022/06/03 06:18:00;;;;;;;10.60;3.00;;;;;;;15.01;63.46;100536.14;105078;1265;73892;-65
2022/06/03 06:21:23;;;;;;;10.80;4.40;;;;;;;14.99;63.85;100533.80;105188;1265;59628;-65
2022/06/03 06:24:34;;;;;;;11.20;4.20;;;;;;;15.05;64.28;100534.17;105245;1265;60610;-65
2022/06/03 06:27:33;;;;;;;10.10;4.10;;;;;;;15.49;63.17;100536.98;105306;1265;73729;-65
2022/06/03 06:30:49;;;;;;;8.30;3.00;;;;;;;15.92;60.95;100528.27;105345;1268;66601;-61
2022/06/03 06:34:10;;;;;;;9.40;2.90;;;;;;;16.39;60.10;100525.89;105260;1265;72106;-63
2022/06/03 06:37:26;;;;;;;9.60;2.90;;;;;;;17.54;56.46;100529.78;105382;1265;59796;-66
2022/06/03 06:40:58;;;;;;;7.70;2.30;;;;;;;17.75;54.86;100527.72;105168;1265;60491;-65
2022/06/03 06:43:54;;;;;;;9.30;2.50;;;;;;;17.60;54.21;100528.52;105212;1268;73759;-61
2022/06/03 06:47:15;;;;;;;10.20;3.00;;;;;;;17.55;54.48;100529.20;105254;1265;66716;-64
2022/06/03 06:50:49;;;;;;;8.20;2.60;;;;;;;18.30;53.28;100529.50;105468;1264;72522;-64
2022/06/03 06:54:01;;;;;;;7.80;2.50;;;;;;;19.62;49.71;100523.92;105386;1266;59547;-65
2022/06/03 06:57:00;;;;;;;7.60;2.20;;;;;;;20.99;45.95;100513.54;105477;1265;60522;-64
2022/06/03 07:00:24;;;;;;;8.70;2.20;;;;;;;21.93;42.72;100506.33;105066;1266;73711;-63
2022/06/03 07:03:38;;;;;;;8.90;2.20;;;;;;;23.70;38.28;100500.80;105483;1265;69508;-65
2022/06/03 07:06:44;;;;;;;8.70;2.10;;;;;;;24.56;35.14;100498.73;105155;1265;73638;-64
2022/06/03 07:09:52;;;;;;;8.40;1.70;;;;;;;25.87;33.61;100495.95;105297;1265;59861;-64
2022/06/03 07:12:56;;;;;;;7.60;1.70;;;;;;;26.06;31.70;100497.45;105470;1267;60426;-67
2022/06/03 07:15:53;;;;;;;6.50;1.80;;;;;;;26.97;30.66;100488.13;105468;1265;74569;-68
2022/06/03 07:22:39;;;;;;;7.20;1.60;;;;;;;27.99;28.34;100489.46;105408;1268;74301;-66
2022/06/03 07:26:02;;;;;;;7.10;2.00;;;;;;;28.91;27.96;100479.89;105384;1265;59687;-66
2022/06/03 07:29:20;;;;;;;6.90;1.60;;;;;;;29.25;26.86;100488.10;105268;1265;62201;-65
2022/06/03 07:32:28;;;;;;;7.10;1.90;;;;;;;29.01;26.77;100492.02;105343;1265;73691;-65
2022/06/03 07:35:30;;;;;;;6.50;1.50;;;;;;;28.30;28.40;100494.30;105218;1265;68125;-68
2022/06/03 07:38:56;;;;;;;7.50;1.60;;;;;;;29.01;27.49;100487.65;105294;1265;74542;-71
2022/06/03 07:41:59;;;;;;;6.30;1.50;;;;;;;29.38;27.14;100488.41;105275;1264;59656;-73
2022/06/03 07:45:26;;;;;;;7.50;1.80;;;;;;;29.37;26.72;100481.23;105412;1265;59696;-68
2022/06/03 07:48:23;;;;;;;7.10;1.50;;;;;;;29.65;26.17;100480.32;105364;1265;74621;-68
2022/06/03 07:51:37;;;;;;;6.70;1.70;;;;;;;29.11;26.74;100478.38;105433;1265;68613;-67
2022/06/03 07:54:37;;;;;;;7.70;1.90;;;;;;;28.21;27.54;100488.30;105399;1265;74417;-72
2022/06/03 07:57:28;;;;;;;7.80;1.70;;;;;;;27.14;28.28;100495.16;105256;1265;60107;-69
2022/06/03 08:00:18;;;;;;;8.40;1.70;;;;;;;26.14;29.63;100492.34;105038;1268;61026;-70
2022/06/03 08:03:19;;;;;;;7.40;1.80;;;;;;;25.13;31.04;100495.27;105203;1265;73372;-70
2022/06/03 08:06:08;;;;;;;6.10;1.60;;;;;;;24.20;32.61;100498.05;105129;1267;69218;-71
2022/06/03 08:12:00;;;;;;;6.60;1.80;;;;;;;22.99;34.47;100505.52;105083;1266;59816;-68
2022/06/03 08:14:46;;;;;;;8.60;1.90;;;;;;;22.73;35.26;100508.30;105328;1265;62312;-68
2022/06/03 08:17:33;;;;;;;7.90;2.20;;;;;;;23.81;34.12;100507.79;107069;1265;74732;-68
2022/06/03 08:20:25;;;;;;;7.30;1.70;;;;;;;24.85;32.72;100503.83;106622;1268;68442;-71
2022/06/03 08:23:12;;;;;;;7.10;1.70;;;;;;;24.39;32.82;100504.02;106516;1265;73513;-69
2022/06/03 08:26:04;;;;;;;8.20;1.90;;;;;;;23.93;33.85;100503.77;106606;1268;59612;-68
2022/06/03 08:29:07;;;;;;;7.10;1.90;;;;;;;23.46;34.93;100519.28;105515;1267;59665;-67
2022/06/03 08:31:56;;;;;;;6.90;1.80;;;;;;;23.04;35.28;100515.42;105298;1267;73719;-68
2022/06/03 08:34:52;;;;;;;7.20;1.80;;;;;;;23.57;34.59;100514.27;105553;1267;69590;-69
2022/06/03 08:37:51;;;;;;;7.00;2.00;;;;;;;23.66;34.30;100512.84;105374;1268;73836;-70
2022/06/03 08:41:02;;;;;;;7.10;2.10;;;;;;;23.66;34.53;100510.65;105688;1268;59762;-71
2022/06/03 08:44:41;;;;;;;7.70;1.90;;;;;;;24.34;33.06;100504.29;105607;1268;61838;-70
2022/06/03 08:47:51;;;;;;;6.20;1.90;;;;;;;23.25;34.49;100511.89;105652;1267;72821;-68
2022/06/03 08:51:11;;;;;;;7.70;2.30;;;;;;;23.50;35.34;100509.16;105317;1268;70389;-68
2022/06/03 08:54:41;;;;;;;7.30;1.60;;;;;;;24.85;32.47;100496.45;105192;1268;73580;-70
2022/06/03 08:57:44;;;;;;;9.80;1.90;;;;;;;25.50;31.83;100496.67;105409;1268;59749;-68
2022/06/03 09:00:58;;;;;;;6.90;1.70;;;;;;;26.64;30.32;100491.90;105377;1264;60337;-68
2022/06/03 09:04:25;;;;;;;9.60;2.30;;;;;;;28.04;28.47;100485.88;105241;1265;73021;-68
2022/06/03 09:07:42;;;;;;;7.90;2.00;;;;;;;28.82;27.05;100484.06;105302;1265;68519;-67
2022/06/03 09:10:40;;;;;;;7.00;2.40;;;;;;;28.55;27.05;100486.59;105346;1265;74434;-68
2022/06/03 09:13:47;;;;;;;6.90;1.60;;;;;;;28.32;27.46;100486.93;105305;1265;60177;-69
2022/06/03 09:16:35;;;;;;;7.70;1.90;;;;;;;27.50;28.07;100494.52;105200;1265;60277;-69
2022/06/03 09:19:38;;;;;;;7.60;2.30;;;;;;;26.71;29.37;100493.36;105097;1265;73914;-68
2022/06/03 09:22:31;;;;;;;9.50;2.00;;;;;;;25.94;30.09;100498.63;105496;1265;67933;-66
2022/06/03 09:25:19;;;;;;;7.00;2.10;;;;;;;26.28;30.31;100494.55;105720;1265;74481;-67
2022/06/03 09:28:12;;;;;;;6.50;1.60;;;;;;;26.65;30.06;100495.18;105200;1265;59765;-68
2022/06/03 09:31:06;;;;;;;6.60;1.80;;;;;;;27.20;28.61;100494.46;105298;1265;60544;-66
2022/06/03 09:33:56;;;;;;;7.40;1.80;;;;;;;27.16;28.46;100490.07;105303;1268;73839;-67
2022/06/03 09:36:42;;;;;;;6.40;2.00;;;;;;;27.79;28.34;100492.45;105245;1265;69623;-67
2022/06/03 09:39:32;;;;;;;7.20;1.90;;;;;;;27.62;28.54;100491.52;105229;1268;74166;-68
2022/06/03 09:42:21;;;;;;;8.50;2.50;;;;;;;27.57;28.15;100491.75;105140;1265;59886;-65
2022/06/03 09:45:09;;;;;;;7.90;2.60;;;;;;;28.21;27.15;100484.09;105338;1265;61083;-66
2022/06/03 09:47:59;;;;;;;9.50;2.60;;;;;;;28.77;26.64;100481.01;105187;1266;73551;-68
2022/06/03 09:50:52;;;;;;;8.20;2.30;;;;;;;28.96;26.47;100482.14;105192;1265;67331;-70
2022/06/03 09:53:42;;;;;;;6.70;1.80;;;;;;;28.72;26.38;100481.95;105327;1265;74207;-68
2022/06/03 09:56:30;;;;;;;7.80;2.10;;;;;;;28.55;26.65;100482.42;105255;1265;59767;-68
2022/06/03 09:59:20;;;;;;;8.60;3.20;;;;;;;29.11;26.14;100484.02;105382;1265;61040;-68
2022/06/03 10:02:08;;;;;;;5.80;1.40;;;;;;;29.67;25.35;100478.48;105150;1267;74740;-68
2022/06/03 10:04:56;;;;;;;7.60;2.10;;;;;;;29.63;24.96;100480.78;105284;1265;68643;-68
2022/06/03 10:07:45;;;;;;;7.10;2.70;;;;;;;29.23;25.29;100476.12;105363;1265;73413;-67
2022/06/03 10:13:42;;;;;;;7.40;1.70;;;;;;;28.54;26.58;100482.56;105205;1265;62099;-70
2022/06/03 10:16:28;;;;;;;5.80;1.50;;;;;;;28.40;27.29;100484.98;105315;1265;73626;-68
2022/06/03 10:19:16;;;;;;;7.20;1.80;;;;;;;27.73;27.54;100488.02;105345;1265;69462;-67
2022/06/03 10:22:09;;;;;;;5.60;1.60;;;;;;;27.65;27.06;100484.05;105324;1266;73430;-67
2022/06/03 10:24:56;;;;;;;6.30;1.60;;;;;;;27.64;27.19;100484.95;105276;1265;59757;-67
2022/06/03 10:27:45;;;;;;;7.50;1.90;;;;;;;27.89;26.84;100481.50;105297;1265;60396;-65
2022/06/03 10:30:36;;;;;;;7.40;1.70;;;;;;;28.34;26.42;100474.61;105550;1265;73227;-65
2022/06/03 10:33:22;;;;;;;6.60;1.60;;;;;;;29.23;25.60;100474.59;105080;1268;67489;-65
2022/06/03 10:36:09;;;;;;;7.20;2.10;;;;;;;28.96;24.97;100474.52;105110;1265;71971;-64
2022/06/03 10:38:55;;;;;;;7.40;1.80;;;;;;;29.26;25.20;100472.05;105206;1265;60028;-66
2022/06/03 10:41:51;;;;;;;6.80;1.80;;;;;;;28.63;25.88;100477.58;105193;1266;59586;-65
2022/06/03 10:44:45;;;;;;;7.30;2.50;;;;;;;28.91;25.51;100476.58;105216;1268;74915;-65
2022/06/03 10:47:43;;;;;;;7.50;2.20;;;;;;;29.28;25.21;100472.13;105504;1268;68796;-67
2022/06/03 10:50:35;;;;;;;7.80;2.80;;;;;;;29.03;25.04;100477.34;105551;1265;74851;-66
2022/06/03 11:02:53;;;;;;;6.60;2.10;;;;;;;26.75;28.91;100483.16;105346;1268;69402;-66
2022/06/03 11:05:39;;;;;;;6.90;2.50;;;;;;;26.46;29.30;100476.33;105251;1268;73180;-65
2022/06/03 11:08:25;;;;;;;6.90;2.50;;;;;;;25.94;30.31;100481.78;105174;1265;59758;-65
2022/06/03 11:11:13;;;;;;;6.40;2.20;;;;;;;25.93;30.01;100478.55;105143;1267;61528;-63
2022/06/03 11:14:42;;;;;;;6.10;2.10;;;;;;;26.45;29.73;100472.48;105259;1265;73600;-63
2022/06/03 11:17:31;;;;;;;7.80;2.50;;;;;;;26.41;29.52;100471.23;104832;1273;68228;-66
2022/06/03 11:20:39;;;;;;;7.30;2.00;;;;;;;26.32;30.27;100470.27;104914;1273;73355;-66
2022/06/03 11:23:25;;;;;;;6.10;1.70;;;;;;;26.34;29.43;100470.08;104585;1274;59732;-65
2022/06/03 11:26:12;;;;;;;6.00;1.80;;;;;;;26.43;30.01;100463.30;105409;1273;60461;-68
2022/06/03 11:29:04;;;;;;;7.90;2.20;;;;;;;26.35;29.18;100462.48;104898;1273;74667;-69
2022/06/03 11:31:54;;;;;;;8.20;2.40;;;;;;;25.93;29.79;100464.96;104788;1274;69926;-66
2022/06/03 11:34:57;;;;;;;8.50;2.90;;;;;;;25.64;28.96;100465.09;104829;1274;73243;-71
2022/06/03 11:37:48;;;;;;;7.10;2.00;;;;;;;25.30;29.97;100466.80;104774;1273;61327;-71
2022/06/03 11:40:40;;;;;;;8.30;2.10;;;;;;;25.16;30.58;100462.38;104631;1273;60714;-70
2022/06/03 11:43:48;;;;;;;8.00;2.40;;;;;;;24.65;30.94;100463.64;105060;1273;73879;-71
2022/06/03 11:46:59;;;;;;;7.90;2.20;;;;;;;24.36;30.83;100453.68;104843;1273;69475;-66
2022/06/03 11:49:46;;;;;;;8.10;2.70;;;;;;;24.05;31.11;100451.94;105100;1273;73388;-71
2022/06/03 11:52:34;;;;;;;9.50;3.70;;;;;;;23.63;32.13;100461.08;104808;1268;60951;-66
2022/06/03 11:55:24;;;;;;;9.50;2.30;;;;;;;23.55;31.51;100456.41;105332;1265;60934;-67
2022/06/03 11:58:27;;;;;;;9.70;3.30;;;;;;;23.42;32.53;100457.95;105579;1265;73789;-71
2022/06/03 12:01:25;;;;;;;6.40;2.10;;;;;;;23.31;32.98;100457.35;105601;1265;68618;-67
2022/06/03 12:04:47;;;;;;;6.40;2.20;;;;;;;23.13;33.17;100450.80;105280;1265;73209;-68
2022/06/03 12:08:16;;;;;;;8.00;2.60;;;;;;;23.01;33.57;100452.20;105244;1265;59761;-67
2022/06/03 12:11:07;;;;;;;6.50;1.90;;;;;;;22.97;34.61;100453.70;105653;1265;59614;-68
2022/06/03 12:14:18;;;;;;;6.60;2.40;;;;;;;22.89;34.63;100443.88;105335;1268;73558;-70
2022/06/03 12:17:04;;;;;;;8.10;2.10;;;;;;;22.53;34.05;100445.48;105494;1265;65798;-67
2022/06/03 12:19:53;;;;;;;7.80;2.30;;;;;;;22.49;35.39;100446.14;105412;1264;72037;-69
2022/06/03 12:22:41;;;;;;;7.00;2.30;;;;;;;22.63;35.14;100448.79;105763;1265;59756;-68
2022/06/03 12:25:51;;;;;;;7.70;2.20;;;;;;;22.75;34.67;100446.39;106148;1265;59678;-67
2022/06/03 12:28:37;;;;;;;6.60;2.30;;;;;;;22.75;34.48;100439.59;105854;1265;72523;-67
2022/06/03 12:31:47;;;;;;;8.60;3.10;;;;;;;22.68;37.24;100446.47;105711;1265;66961;-68
2022/06/03 12:34:36;;;;;;;9.90;2.90;;;;;;;22.44;38.29;100446.50;105956;1267;74303;-68
2022/06/03 12:37:28;;;;;;;9.30;2.80;;;;;;;22.11;41.48;100442.05;106792;1268;59691;-67
2022/06/03 12:40:26;;;;;;;8.80;2.70;;;;;;;21.59;43.22;100434.67;105628;1268;61478;-68
2022/06/03 12:43:28;;;;;;;8.90;2.80;;;;;;;21.18;44.42;100444.14;105125;1268;73688;-67
2022/06/03 12:46:44;;;;;;;11.10;2.90;;;;;;;20.95;45.34;100449.17;105364;1267;68569;-72
2022/06/03 12:49:31;;;;;;;8.60;3.30;;;;;;;20.81;45.87;100447.00;105050;1271;70623;-71
2022/06/03 12:52:21;;;;;;;10.20;2.90;;;;;;;20.85;46.06;100448.53;105075;1268;59749;-69
2022/06/03 12:55:36;;;;;;;8.70;2.80;;;;;;;20.77;46.09;100447.71;105106;1267;59691;-70
2022/06/03 12:58:53;;;;;;;9.70;2.60;;;;;;;20.34;47.08;100444.52;105457;1268;73605;-69
2022/06/03 13:02:00;;;;;;;9.50;2.80;;;;;;;20.16;47.71;100439.89;105389;1268;69567;-71
2022/06/03 13:05:10;;;;;;;10.40;2.80;;;;;;;20.18;48.31;100444.72;105125;1268;72556;-69
2022/06/03 13:08:09;;;;;;;8.50;2.60;;;;;;;20.27;48.01;100446.73;105396;1268;59563;-69
2022/06/03 13:11:30;;;;;;;9.10;2.70;;;;;;;20.24;47.57;100447.96;105105;1270;59688;-69
2022/06/03 13:14:28;;;;;;;11.10;2.80;;;;;;;20.19;47.96;100445.65;105530;1268;73002;-74
2022/06/03 13:17:59;;;;;;;10.20;2.40;;;;;;;20.08;48.30;100449.46;105085;1268;67331;-70
2022/06/03 13:21:26;;;;;;;8.30;2.60;;;;;;;19.90;48.94;100451.13;105111;1268;73387;-68
2022/06/03 13:24:27;;;;;;;10.00;2.90;;;;;;;19.78;49.46;100450.60;105431;1267;59651;-72
2022/06/03 13:27:19;;;;;;;8.30;3.00;;;;;;;19.67;49.32;100445.46;105112;1268;62132;-67
2022/06/03 13:30:15;;;;;;;10.30;2.80;;;;;;;19.51;49.42;100440.75;105244;1267;74819;-68
2022/06/03 13:33:20;;;;;;;12.10;2.70;;;;;;;19.37;50.02;100444.77;105031;1267;69622;-70
2022/06/03 13:36:11;;;;;;;11.20;2.70;;;;;;;19.26;50.26;100444.67;105030;1268;73859;-67
2022/06/03 13:38:58;;;;;;;9.10;2.70;;;;;;;19.21;50.82;100444.84;105075;1268;59707;-67
2022/06/03 13:45:11;;;;;;;10.70;2.90;;;;;;;19.18;50.66;100436.92;105352;1268;74214;-68
2022/06/03 13:47:58;;;;;;;10.50;2.70;;;;;;;19.12;50.84;100434.64;105222;1268;67557;-65
2022/06/03 13:50:47;;;;;;;8.90;2.80;;;;;;;19.05;51.15;100433.16;105266;1268;73616;-66
2022/06/03 13:53:35;;;;;;;8.70;2.70;;;;;;;18.98;51.03;100432.46;105183;1268;59671;-69
2022/06/03 13:56:26;;;;;;;9.90;2.50;;;;;;;18.93;51.14;100431.94;106081;1265;60373;-62
2022/06/03 13:59:16;;;;;;;9.60;2.80;;;;;;;18.87;51.72;100443.41;105165;1265;74781;-65
2022/06/03 14:02:11;;;;;;;9.40;3.50;;;;;;;18.88;51.37;100432.60;105124;1265;68433;-67
2022/06/03 14:05:09;;;;;;;15.10;9.00;;;;;;;18.86;51.33;100428.80;106239;1265;73641;-69
2022/06/03 14:08:21;;;;;;;9.00;3.60;;;;;;;18.80;51.59;100430.94;105529;1268;59701;-68
2022/06/03 14:11:18;;;;;;;12.00;3.10;;;;;;;18.73;52.06;100439.52;105559;1265;60387;-68
2022/06/03 14:14:22;;;;;;;8.50;2.70;;;;;;;18.57;52.71;100432.78;105547;1268;74850;-67
2022/06/03 14:17:50;;;;;;;9.30;2.90;;;;;;;18.65;52.40;100443.05;105698;1265;69790;-68
2022/06/03 14:20:48;;;;;;;10.60;3.00;;;;;;;18.45;53.01;100439.96;105276;1265;73402;-73
2022/06/03 14:23:44;;;;;;;9.80;3.30;;;;;;;18.34;53.01;100436.42;105164;1265;59441;-66
2022/06/03 14:26:43;;;;;;;10.60;3.10;;;;;;;18.22;53.74;100429.48;105075;1268;59650;-69
2022/06/03 14:29:40;;;;;;;9.10;2.90;;;;;;;18.15;53.69;100428.58;105031;1265;73554;-65
2022/06/03 14:32:33;;;;;;;10.40;3.10;;;;;;;18.09;53.76;100424.11;105163;1265;68494;-66
2022/06/03 14:35:46;;;;;;;10.90;2.80;;;;;;;18.08;53.83;100429.68;105203;1268;72628;-65
2022/06/03 14:38:47;;;;;;;9.00;2.70;;;;;;;18.03;54.01;100438.00;105267;1268;59738;-68
2022/06/03 14:41:40;;;;;;;9.80;3.00;;;;;;;17.95;54.50;100437.43;105354;1265;62048;-68
2022/06/03 14:44:30;;;;;;;10.40;3.20;;;;;;;17.90;54.75;100434.63;105034;1268;74678;-69